KMLU/MLU METAR and TAF weather

Enter ICAO airport designator
Station Type Date Time Source
KMLU METAR 2020/07/14 05:53 UTC NOAA

KMLU 140553Z AUTO 00000KT 10SM CLR 26/24 A2990 RMK AO2 SLP125 T02610239 10339 20250 403610239 50001


Station Type Date Time Source
KMLU Decoded METAR 2020/07/14 05:53 UTC NOAA

MONROE REGIONAL AIRPORT, LA, United States (KMLU) 32-31N 092-02W 29M
Jul 14, 2020 - 01:53 AM EDT / 2020.07.14 0553 UTC
Wind: Calm:0
Visibility: 10 mile(s):0
Sky conditions: clear
Temperature: 79.0 F (26.1 C)
Dew Point: 75.0 F (23.9 C)
Relative Humidity: 87%
Pressure (altimeter): 29.9 in. Hg (1012 hPa)
Pressure tendency: 0.00 inches (0.1 hPa) higher than three hours ago
ob: KMLU 140553Z AUTO 00000KT 10SM CLR 26/24 A2990 RMK AO2 SLP125 T02610239 10339 20250 403610239 50001
cycle: 6

Station Type Date Time Source
KMLU TAF 2020/07/14 06:42 UTC NOAA

TAF KMLU 140540Z 1406/1506 VRB03KT P6SM FEW150
FM141500 18007KT P6SM SCT040 SCT150
FM150100 16003KT P6SM FEW150 SCT250

Example: see airport list